sensor_id;sensor_type;location;lat;lon;timestamp;pressure;altitude;pressure_sealevel;temperature;humidity
5380;BME280;2713;42.680;23.310;2023-06-14T00:02:01;94767.75;;;19.23;89.01
5380;BME280;2713;42.680;23.310;2023-06-14T00:04:27;94776.31;;;19.13;88.96
5380;BME280;2713;42.680;23.310;2023-06-14T00:06:55;94766.00;;;19.29;88.57
5380;BME280;2713;42.680;23.310;2023-06-14T00:09:22;94772.88;;;19.30;88.65
5380;BME280;2713;42.680;23.310;2023-06-14T00:11:50;94756.75;;;19.26;88.74
5380;BME280;2713;42.680;23.310;2023-06-14T00:14:17;94762.09;;;19.31;88.97
5380;BME280;2713;42.680;23.310;2023-06-14T00:16:44;94757.00;;;19.41;89.51
5380;BME280;2713;42.680;23.310;2023-06-14T00:19:11;94766.50;;;19.42;89.87
5380;BME280;2713;42.680;23.310;2023-06-14T00:21:38;94738.13;;;19.33;89.63
5380;BME280;2713;42.680;23.310;2023-06-14T00:24:05;94764.50;;;19.49;89.39
5380;BME280;2713;42.680;23.310;2023-06-14T00:26:32;94763.16;;;19.47;89.38
5380;BME280;2713;42.680;23.310;2023-06-14T00:29:00;94758.09;;;19.29;89.94
5380;BME280;2713;42.680;23.310;2023-06-14T00:31:27;94756.56;;;19.33;90.31
5380;BME280;2713;42.680;23.310;2023-06-14T00:33:54;94759.53;;;19.36;90.33
5380;BME280;2713;42.680;23.310;2023-06-14T00:36:20;94761.84;;;19.33;90.86
5380;BME280;2713;42.680;23.310;2023-06-14T00:38:47;94760.34;;;19.37;89.24
5380;BME280;2713;42.680;23.310;2023-06-14T00:41:14;94751.06;;;19.34;89.20
5380;BME280;2713;42.680;23.310;2023-06-14T00:43:41;94752.59;;;19.30;88.39
5380;BME280;2713;42.680;23.310;2023-06-14T00:46:10;94746.59;;;19.35;88.93
5380;BME280;2713;42.680;23.310;2023-06-14T00:48:37;94748.84;;;19.43;89.45
5380;BME280;2713;42.680;23.310;2023-06-14T00:51:06;94745.41;;;19.42;89.46
5380;BME280;2713;42.680;23.310;2023-06-14T00:53:33;94743.91;;;19.46;89.52
5380;BME280;2713;42.680;23.310;2023-06-14T00:56:01;94750.78;;;19.47;89.10
5380;BME280;2713;42.680;23.310;2023-06-14T00:58:28;94748.34;;;19.29;89.53
5380;BME280;2713;42.680;23.310;2023-06-14T01:00:55;94746.75;;;19.28;89.38
5380;BME280;2713;42.680;23.310;2023-06-14T01:03:24;94743.72;;;19.19;89.54
5380;BME280;2713;42.680;23.310;2023-06-14T01:05:59;94741.47;;;19.11;90.35
5380;BME280;2713;42.680;23.310;2023-06-14T01:08:37;94745.34;;;19.04;90.73
5380;BME280;2713;42.680;23.310;2023-06-14T01:11:12;94740.84;;;19.04;91.71
5380;BME280;2713;42.680;23.310;2023-06-14T01:13:46;94733.66;;;19.00;91.45
5380;BME280;2713;42.680;23.310;2023-06-14T01:16:14;94737.81;;;19.12;90.87
5380;BME280;2713;42.680;23.310;2023-06-14T01:18:43;94736.63;;;19.20;90.17
5380;BME280;2713;42.680;23.310;2023-06-14T01:21:20;94719.16;;;19.14;88.55
5380;BME280;2713;42.680;23.310;2023-06-14T01:23:49;94745.66;;;19.24;88.86
5380;BME280;2713;42.680;23.310;2023-06-14T01:26:19;94735.34;;;19.22;88.99
5380;BME280;2713;42.680;23.310;2023-06-14T01:28:46;94740.38;;;19.24;88.43
5380;BME280;2713;42.680;23.310;2023-06-14T01:34:03;94742.84;;;19.31;89.50
5380;BME280;2713;42.680;23.310;2023-06-14T01:36:30;94735.00;;;19.36;88.85
5380;BME280;2713;42.680;23.310;2023-06-14T01:38:59;94734.78;;;19.37;87.80
5380;BME280;2713;42.680;23.310;2023-06-14T01:41:26;94741.06;;;19.36;87.72
5380;BME280;2713;42.680;23.310;2023-06-14T01:43:55;94739.03;;;19.38;88.68
5380;BME280;2713;42.680;23.310;2023-06-14T01:46:23;94744.69;;;19.30;88.78
5380;BME280;2713;42.680;23.310;2023-06-14T01:48:50;94734.06;;;19.25;88.59
5380;BME280;2713;42.680;23.310;2023-06-14T01:51:19;94739.00;;;19.21;89.34
5380;BME280;2713;42.680;23.310;2023-06-14T01:53:47;94737.50;;;19.25;88.79
5380;BME280;2713;42.680;23.310;2023-06-14T01:56:16;94740.88;;;19.21;88.74
5380;BME280;2713;42.680;23.310;2023-06-14T01:58:43;94734.31;;;19.07;88.50
5380;BME280;2713;42.680;23.310;2023-06-14T02:01:09;94747.81;;;19.10;88.78
5380;BME280;2713;42.680;23.310;2023-06-14T02:03:37;94751.00;;;19.12;88.46
5380;BME280;2713;42.680;23.310;2023-06-14T02:06:04;94767.50;;;19.08;88.52
5380;BME280;2713;42.680;23.310;2023-06-14T02:08:32;94761.22;;;19.09;89.22
5380;BME280;2713;42.680;23.310;2023-06-14T02:11:00;94763.38;;;19.12;88.99
5380;BME280;2713;42.680;23.310;2023-06-14T02:13:28;94763.03;;;19.08;89.49
5380;BME280;2713;42.680;23.310;2023-06-14T02:15:55;94768.41;;;18.97;89.44
5380;BME280;2713;42.680;23.310;2023-06-14T02:18:23;94781.16;;;19.05;88.49
5380;BME280;2713;42.680;23.310;2023-06-14T02:20:50;94770.06;;;19.03;88.38
5380;BME280;2713;42.680;23.310;2023-06-14T02:23:16;94771.72;;;18.92;88.69
5380;BME280;2713;42.680;23.310;2023-06-14T02:25:43;94772.44;;;18.88;89.25
5380;BME280;2713;42.680;23.310;2023-06-14T02:28:11;94780.00;;;18.84;89.01
5380;BME280;2713;42.680;23.310;2023-06-14T02:30:40;94777.81;;;18.93;89.25
5380;BME280;2713;42.680;23.310;2023-06-14T02:33:06;94772.91;;;18.85;89.77
5380;BME280;2713;42.680;23.310;2023-06-14T02:35:33;94776.56;;;18.84;89.92
5380;BME280;2713;42.680;23.310;2023-06-14T02:38:01;94776.34;;;18.85;90.35
5380;BME280;2713;42.680;23.310;2023-06-14T02:40:28;94768.28;;;18.92;90.11
5380;BME280;2713;42.680;23.310;2023-06-14T02:42:56;94771.56;;;18.82;90.11
5380;BME280;2713;42.680;23.310;2023-06-14T02:45:23;94771.63;;;18.87;90.37
5380;BME280;2713;42.680;23.310;2023-06-14T02:47:51;94769.66;;;18.94;90.29
5380;BME280;2713;42.680;23.310;2023-06-14T02:50:18;94765.19;;;18.95;90.11
5380;BME280;2713;42.680;23.310;2023-06-14T02:52:47;94777.66;;;18.99;89.47
5380;BME280;2713;42.680;23.310;2023-06-14T02:55:14;94778.47;;;19.00;89.20
5380;BME280;2713;42.680;23.310;2023-06-14T02:57:40;94770.13;;;18.91;89.78
5380;BME280;2713;42.680;23.310;2023-06-14T03:00:10;94777.88;;;18.98;89.29
5380;BME280;2713;42.680;23.310;2023-06-14T03:02:39;94783.78;;;19.05;89.16
5380;BME280;2713;42.680;23.310;2023-06-14T03:05:09;94774.03;;;18.89;90.40
5380;BME280;2713;42.680;23.310;2023-06-14T03:07:36;94776.97;;;18.76;91.01
5380;BME280;2713;42.680;23.310;2023-06-14T03:10:07;94782.09;;;18.82;91.13
5380;BME280;2713;42.680;23.310;2023-06-14T03:12:36;94782.97;;;18.88;90.94
5380;BME280;2713;42.680;23.310;2023-06-14T03:15:04;94792.09;;;18.97;90.91
5380;BME280;2713;42.680;23.310;2023-06-14T03:17:35;94795.25;;;18.82;90.41
5380;BME280;2713;42.680;23.310;2023-06-14T03:20:05;94791.28;;;18.80;90.34
5380;BME280;2713;42.680;23.310;2023-06-14T03:22:35;94797.41;;;18.85;90.71
5380;BME280;2713;42.680;23.310;2023-06-14T03:25:03;94798.56;;;18.89;89.33
5380;BME280;2713;42.680;23.310;2023-06-14T03:27:33;94798.78;;;18.88;89.51
5380;BME280;2713;42.680;23.310;2023-06-14T03:30:01;94794.94;;;18.79;90.17
5380;BME280;2713;42.680;23.310;2023-06-14T03:32:30;94799.25;;;18.85;88.95
5380;BME280;2713;42.680;23.310;2023-06-14T03:34:59;94799.25;;;18.85;88.92
5380;BME280;2713;42.680;23.310;2023-06-14T03:37:26;94803.88;;;18.78;89.53
5380;BME280;2713;42.680;23.310;2023-06-14T03:39:54;94806.91;;;18.69;90.33
5380;BME280;2713;42.680;23.310;2023-06-14T03:42:23;94810.22;;;18.65;90.32
5380;BME280;2713;42.680;23.310;2023-06-14T03:44:50;94802.47;;;18.58;90.33
5380;BME280;2713;42.680;23.310;2023-06-14T03:47:19;94804.16;;;18.64;89.80
5380;BME280;2713;42.680;23.310;2023-06-14T03:49:46;94801.22;;;18.78;89.63
5380;BME280;2713;42.680;23.310;2023-06-14T03:52:14;94801.09;;;18.84;89.40
5380;BME280;2713;42.680;23.310;2023-06-14T03:54:43;94800.84;;;18.86;88.78
5380;BME280;2713;42.680;23.310;2023-06-14T03:57:13;94802.13;;;18.83;88.79
5380;BME280;2713;42.680;23.310;2023-06-14T03:59:41;94804.16;;;18.93;88.11
5380;BME280;2713;42.680;23.310;2023-06-14T04:02:08;94800.94;;;18.91;88.13
5380;BME280;2713;42.680;23.310;2023-06-14T04:04:36;94805.66;;;18.89;88.21
5380;BME280;2713;42.680;23.310;2023-06-14T04:07:04;94813.91;;;18.81;89.07
5380;BME280;2713;42.680;23.310;2023-06-14T04:09:31;94809.41;;;18.93;88.52
5380;BME280;2713;42.680;23.310;2023-06-14T04:11:58;94807.41;;;18.83;88.77
5380;BME280;2713;42.680;23.310;2023-06-14T04:14:26;94809.13;;;18.78;89.65
5380;BME280;2713;42.680;23.310;2023-06-14T04:16:54;94805.75;;;18.94;88.92
5380;BME280;2713;42.680;23.310;2023-06-14T04:19:22;94803.28;;;19.04;88.00
5380;BME280;2713;42.680;23.310;2023-06-14T04:21:48;94807.78;;;19.20;87.86
5380;BME280;2713;42.680;23.310;2023-06-14T04:24:16;94808.84;;;19.52;85.81
5380;BME280;2713;42.680;23.310;2023-06-14T04:26:46;94812.91;;;19.77;84.25
5380;BME280;2713;42.680;23.310;2023-06-14T04:29:16;94812.00;;;19.88;83.45
5380;BME280;2713;42.680;23.310;2023-06-14T04:31:51;94815.94;;;20.07;83.68
5380;BME280;2713;42.680;23.310;2023-06-14T04:34:20;94811.25;;;20.09;82.64
5380;BME280;2713;42.680;23.310;2023-06-14T04:36:52;94819.81;;;20.38;80.54
5380;BME280;2713;42.680;23.310;2023-06-14T04:39:25;94809.84;;;20.66;80.10
5380;BME280;2713;42.680;23.310;2023-06-14T04:41:53;94813.91;;;20.74;80.34
5380;BME280;2713;42.680;23.310;2023-06-14T04:44:23;94810.66;;;20.89;78.27
5380;BME280;2713;42.680;23.310;2023-06-14T04:46:57;94819.28;;;21.06;77.19
5380;BME280;2713;42.680;23.310;2023-06-14T04:49:24;94804.97;;;21.29;75.76
5380;BME280;2713;42.680;23.310;2023-06-14T04:51:53;94823.47;;;21.60;74.63
5380;BME280;2713;42.680;23.310;2023-06-14T04:54:24;94826.63;;;21.57;75.12
5380;BME280;2713;42.680;23.310;2023-06-14T04:56:52;94831.53;;;21.44;75.90
5380;BME280;2713;42.680;23.310;2023-06-14T04:59:23;94820.69;;;21.45;75.86
5380;BME280;2713;42.680;23.310;2023-06-14T05:01:50;94826.13;;;21.34;76.46
5380;BME280;2713;42.680;23.310;2023-06-14T05:04:20;94832.31;;;21.12;77.12
5380;BME280;2713;42.680;23.310;2023-06-14T05:06:47;94836.00;;;21.11;77.32
5380;BME280;2713;42.680;23.310;2023-06-14T05:09:15;94837.66;;;20.96;78.70
5380;BME280;2713;42.680;23.310;2023-06-14T05:11:43;94837.91;;;20.94;79.00
5380;BME280;2713;42.680;23.310;2023-06-14T05:14:11;94838.34;;;20.86;78.56
5380;BME280;2713;42.680;23.310;2023-06-14T05:16:38;94830.47;;;20.91;77.74
5380;BME280;2713;42.680;23.310;2023-06-14T05:19:05;94828.75;;;20.80;78.02
5380;BME280;2713;42.680;23.310;2023-06-14T05:21:34;94833.50;;;20.78;78.29
5380;BME280;2713;42.680;23.310;2023-06-14T05:24:01;94847.84;;;21.09;77.54
5380;BME280;2713;42.680;23.310;2023-06-14T05:26:27;94851.63;;;21.45;76.12
5380;BME280;2713;42.680;23.310;2023-06-14T05:28:55;94853.19;;;21.72;74.31
5380;BME280;2713;42.680;23.310;2023-06-14T05:31:23;94863.38;;;21.54;75.27
5380;BME280;2713;42.680;23.310;2023-06-14T05:33:51;94853.56;;;21.01;77.11
5380;BME280;2713;42.680;23.310;2023-06-14T05:36:18;94860.16;;;20.98;77.21
5380;BME280;2713;42.680;23.310;2023-06-14T05:38:46;94858.50;;;20.92;78.06
5380;BME280;2713;42.680;23.310;2023-06-14T05:41:13;94863.59;;;20.99;78.50
5380;BME280;2713;42.680;23.310;2023-06-14T05:43:40;94853.94;;;21.09;78.16
5380;BME280;2713;42.680;23.310;2023-06-14T05:46:07;94861.94;;;21.14;78.03
5380;BME280;2713;42.680;23.310;2023-06-14T05:48:34;94866.91;;;21.11;77.76
5380;BME280;2713;42.680;23.310;2023-06-14T05:51:00;94867.88;;;21.05;77.60
5380;BME280;2713;42.680;23.310;2023-06-14T05:53:28;94868.19;;;20.87;78.07
5380;BME280;2713;42.680;23.310;2023-06-14T05:55:56;94837.50;;;20.59;79.07
5380;BME280;2713;42.680;23.310;2023-06-14T05:58:23;94863.69;;;20.82;78.59
5380;BME280;2713;42.680;23.310;2023-06-14T06:00:49;94863.97;;;20.86;78.30
5380;BME280;2713;42.680;23.310;2023-06-14T06:03:19;94869.38;;;20.74;79.16
5380;BME280;2713;42.680;23.310;2023-06-14T06:05:46;94874.00;;;20.84;79.08
5380;BME280;2713;42.680;23.310;2023-06-14T06:08:13;94870.03;;;20.86;78.78
5380;BME280;2713;42.680;23.310;2023-06-14T06:10:42;94865.22;;;20.78;78.82
5380;BME280;2713;42.680;23.310;2023-06-14T06:13:10;94869.50;;;20.62;79.43
5380;BME280;2713;42.680;23.310;2023-06-14T06:15:37;94861.09;;;20.44;81.50
5380;BME280;2713;42.680;23.310;2023-06-14T06:18:04;94876.50;;;20.30;82.15
5380;BME280;2713;42.680;23.310;2023-06-14T06:20:31;94878.19;;;20.03;84.10
5380;BME280;2713;42.680;23.310;2023-06-14T06:22:58;94874.75;;;20.02;84.58
5380;BME280;2713;42.680;23.310;2023-06-14T06:25:26;94869.56;;;19.91;85.54
5380;BME280;2713;42.680;23.310;2023-06-14T06:27:53;94871.72;;;19.94;85.20
5380;BME280;2713;42.680;23.310;2023-06-14T06:30:22;94879.88;;;20.09;84.75
5380;BME280;2713;42.680;23.310;2023-06-14T06:32:49;94877.38;;;20.19;83.08
5380;BME280;2713;42.680;23.310;2023-06-14T06:35:17;94880.41;;;20.28;82.99
5380;BME280;2713;42.680;23.310;2023-06-14T06:37:44;94884.00;;;20.21;83.17
5380;BME280;2713;42.680;23.310;2023-06-14T06:40:11;94879.94;;;20.31;82.08
5380;BME280;2713;42.680;23.310;2023-06-14T06:42:38;94893.47;;;20.34;81.50
5380;BME280;2713;42.680;23.310;2023-06-14T06:45:06;94879.59;;;20.44;80.70
5380;BME280;2713;42.680;23.310;2023-06-14T06:47:34;94885.19;;;20.47;80.51
5380;BME280;2713;42.680;23.310;2023-06-14T06:50:01;94886.72;;;20.27;82.63
5380;BME280;2713;42.680;23.310;2023-06-14T06:52:27;94883.28;;;20.26;81.88
5380;BME280;2713;42.680;23.310;2023-06-14T06:54:54;94887.06;;;20.30;81.57
5380;BME280;2713;42.680;23.310;2023-06-14T06:57:22;94876.75;;;20.50;81.64
5380;BME280;2713;42.680;23.310;2023-06-14T06:59:49;94885.97;;;20.69;81.57
5380;BME280;2713;42.680;23.310;2023-06-14T07:02:16;94882.66;;;21.28;79.52
5380;BME280;2713;42.680;23.310;2023-06-14T07:04:44;94882.56;;;21.44;77.57
5380;BME280;2713;42.680;23.310;2023-06-14T07:07:11;94885.00;;;21.78;76.83
5380;BME280;2713;42.680;23.310;2023-06-14T07:09:38;94892.56;;;21.96;75.78
5380;BME280;2713;42.680;23.310;2023-06-14T07:12:06;94889.22;;;21.47;76.58
5380;BME280;2713;42.680;23.310;2023-06-14T07:14:33;94888.72;;;21.50;76.60
5380;BME280;2713;42.680;23.310;2023-06-14T07:17:00;94886.38;;;21.53;76.82
5380;BME280;2713;42.680;23.310;2023-06-14T07:19:27;94881.97;;;21.37;76.03
5380;BME280;2713;42.680;23.310;2023-06-14T07:21:55;94879.91;;;21.44;75.91
5380;BME280;2713;42.680;23.310;2023-06-14T07:24:22;94889.19;;;21.73;75.36
5380;BME280;2713;42.680;23.310;2023-06-14T07:26:49;94884.16;;;22.51;71.90
5380;BME280;2713;42.680;23.310;2023-06-14T07:29:16;94887.78;;;22.82;70.66
5380;BME280;2713;42.680;23.310;2023-06-14T07:31:43;94891.34;;;23.17;68.92
5380;BME280;2713;42.680;23.310;2023-06-14T07:34:10;94884.75;;;23.25;67.64
5380;BME280;2713;42.680;23.310;2023-06-14T07:36:37;94890.94;;;22.73;68.43
5380;BME280;2713;42.680;23.310;2023-06-14T07:39:05;94884.91;;;22.93;68.99
5380;BME280;2713;42.680;23.310;2023-06-14T07:41:32;94897.00;;;23.41;65.70
5380;BME280;2713;42.680;23.310;2023-06-14T07:43:59;94886.16;;;23.88;63.74
5380;BME280;2713;42.680;23.310;2023-06-14T07:46:26;94888.97;;;24.67;61.71
5380;BME280;2713;42.680;23.310;2023-06-14T07:48:52;94894.28;;;24.67;62.04
5380;BME280;2713;42.680;23.310;2023-06-14T07:51:19;94891.47;;;23.73;65.64
5380;BME280;2713;42.680;23.310;2023-06-14T07:53:47;94889.06;;;23.51;65.93
5380;BME280;2713;42.680;23.310;2023-06-14T07:56:15;94897.00;;;23.41;66.90
5380;BME280;2713;42.680;23.310;2023-06-14T07:58:42;94896.94;;;23.31;68.17
5380;BME280;2713;42.680;23.310;2023-06-14T08:01:09;94895.59;;;23.23;66.88
5380;BME280;2713;42.680;23.310;2023-06-14T08:03:37;94898.16;;;22.98;67.63
5380;BME280;2713;42.680;23.310;2023-06-14T08:06:03;94901.69;;;23.14;66.84
5380;BME280;2713;42.680;23.310;2023-06-14T08:08:31;94910.38;;;22.99;67.91
5380;BME280;2713;42.680;23.310;2023-06-14T08:10:58;94905.69;;;23.21;68.15
5380;BME280;2713;42.680;23.310;2023-06-14T08:13:26;94916.78;;;23.13;68.14
5380;BME280;2713;42.680;23.310;2023-06-14T08:15:53;94919.94;;;23.05;67.99
5380;BME280;2713;42.680;23.310;2023-06-14T08:18:20;94921.97;;;22.83;68.85
5380;BME280;2713;42.680;23.310;2023-06-14T08:20:47;94915.59;;;22.79;68.56
5380;BME280;2713;42.680;23.310;2023-06-14T08:23:15;94911.84;;;22.70;68.70
5380;BME280;2713;42.680;23.310;2023-06-14T08:25:44;94920.84;;;22.69;68.84
5380;BME280;2713;42.680;23.310;2023-06-14T08:28:11;94915.03;;;22.72;68.84
5380;BME280;2713;42.680;23.310;2023-06-14T08:30:39;94919.56;;;22.82;68.49
5380;BME280;2713;42.680;23.310;2023-06-14T08:33:06;94924.31;;;22.74;69.54
5380;BME280;2713;42.680;23.310;2023-06-14T08:35:33;94923.78;;;22.78;69.15
5380;BME280;2713;42.680;23.310;2023-06-14T08:38:02;94925.03;;;22.65;69.93
5380;BME280;2713;42.680;23.310;2023-06-14T08:40:30;94920.19;;;22.52;70.14
5380;BME280;2713;42.680;23.310;2023-06-14T08:42:57;94915.84;;;22.72;68.94
5380;BME280;2713;42.680;23.310;2023-06-14T08:45:24;94891.25;;;22.87;67.71
5380;BME280;2713;42.680;23.310;2023-06-14T08:47:53;94908.06;;;23.23;68.07
5380;BME280;2713;42.680;23.310;2023-06-14T08:50:23;94905.28;;;23.80;66.03
5380;BME280;2713;42.680;23.310;2023-06-14T08:52:54;94906.56;;;24.58;63.65
5380;BME280;2713;42.680;23.310;2023-06-14T08:55:23;94900.50;;;25.17;60.51
5380;BME280;2713;42.680;23.310;2023-06-14T08:57:54;94913.06;;;25.55;58.74
5380;BME280;2713;42.680;23.310;2023-06-14T09:00:22;94912.75;;;25.67;58.07
5380;BME280;2713;42.680;23.310;2023-06-14T09:02:50;94903.47;;;25.05;59.53
5380;BME280;2713;42.680;23.310;2023-06-14T09:05:23;94904.50;;;25.14;59.07
5380;BME280;2713;42.680;23.310;2023-06-14T09:07:50;94912.28;;;25.50;58.41
5380;BME280;2713;42.680;23.310;2023-06-14T09:10:18;94900.06;;;24.95;59.30
5380;BME280;2713;42.680;23.310;2023-06-14T09:12:45;94895.97;;;24.18;61.41
5380;BME280;2713;42.680;23.310;2023-06-14T09:15:13;94884.81;;;24.31;61.82
5380;BME280;2713;42.680;23.310;2023-06-14T09:17:40;94883.16;;;24.50;61.31
5380;BME280;2713;42.680;23.310;2023-06-14T09:20:09;94883.56;;;24.98;60.72
5380;BME280;2713;42.680;23.310;2023-06-14T09:22:38;94895.09;;;24.63;58.51
5380;BME280;2713;42.680;23.310;2023-06-14T09:25:05;94891.13;;;24.60;58.58
5380;BME280;2713;42.680;23.310;2023-06-14T09:27:33;94892.38;;;24.83;57.82
5380;BME280;2713;42.680;23.310;2023-06-14T09:30:02;94886.09;;;24.59;59.38
5380;BME280;2713;42.680;23.310;2023-06-14T09:32:29;94887.19;;;23.77;62.97
5380;BME280;2713;42.680;23.310;2023-06-14T09:34:56;94869.41;;;23.47;63.86
5380;BME280;2713;42.680;23.310;2023-06-14T09:37:28;94882.16;;;23.60;63.51
5380;BME280;2713;42.680;23.310;2023-06-14T09:39:57;94889.06;;;23.51;64.41
5380;BME280;2713;42.680;23.310;2023-06-14T09:42:24;94882.16;;;23.45;64.48
5380;BME280;2713;42.680;23.310;2023-06-14T09:44:52;94878.97;;;23.73;64.65
5380;BME280;2713;42.680;23.310;2023-06-14T09:47:20;94869.16;;;23.89;62.47
5380;BME280;2713;42.680;23.310;2023-06-14T09:49:47;94876.31;;;24.29;61.71
5380;BME280;2713;42.680;23.310;2023-06-14T09:52:16;94874.03;;;24.92;61.17
5380;BME280;2713;42.680;23.310;2023-06-14T09:54:45;94874.03;;;24.92;60.18
5380;BME280;2713;42.680;23.310;2023-06-14T09:57:15;94866.03;;;24.87;59.87
5380;BME280;2713;42.680;23.310;2023-06-14T09:59:43;94868.53;;;24.58;60.03
5380;BME280;2713;42.680;23.310;2023-06-14T10:02:17;94867.00;;;24.42;60.89
5380;BME280;2713;42.680;23.310;2023-06-14T10:04:46;94856.66;;;24.15;61.76
5380;BME280;2713;42.680;23.310;2023-06-14T10:07:19;94859.06;;;24.01;61.54
5380;BME280;2713;42.680;23.310;2023-06-14T10:09:47;94844.81;;;24.71;60.08
5380;BME280;2713;42.680;23.310;2023-06-14T10:12:17;94856.16;;;24.97;59.11
5380;BME280;2713;42.680;23.310;2023-06-14T10:14:48;94854.03;;;24.99;58.65
5380;BME280;2713;42.680;23.310;2023-06-14T10:17:20;94854.66;;;24.71;58.75
5380;BME280;2713;42.680;23.310;2023-06-14T10:19:52;94849.03;;;24.88;59.01
5380;BME280;2713;42.680;23.310;2023-06-14T10:22:27;94845.81;;;24.91;58.43
5380;BME280;2713;42.680;23.310;2023-06-14T10:24:55;94839.56;;;24.56;59.42
5380;BME280;2713;42.680;23.310;2023-06-14T10:27:23;94844.94;;;24.36;61.63
5380;BME280;2713;42.680;23.310;2023-06-14T10:30:04;94842.00;;;24.43;60.68
5380;BME280;2713;42.680;23.310;2023-06-14T10:32:31;94841.09;;;24.83;60.00
5380;BME280;2713;42.680;23.310;2023-06-14T10:35:00;94820.94;;;24.61;59.72
5380;BME280;2713;42.680;23.310;2023-06-14T10:37:27;94838.19;;;24.69;58.91
5380;BME280;2713;42.680;23.310;2023-06-14T10:39:54;94830.59;;;24.37;60.25
5380;BME280;2713;42.680;23.310;2023-06-14T10:42:22;94829.97;;;24.65;60.04
5380;BME280;2713;42.680;23.310;2023-06-14T10:44:56;94827.44;;;24.99;58.67
5380;BME280;2713;42.680;23.310;2023-06-14T10:47:26;94835.19;;;24.81;60.38
5380;BME280;2713;42.680;23.310;2023-06-14T10:49:54;94827.72;;;24.98;59.13
5380;BME280;2713;42.680;23.310;2023-06-14T10:52:24;94826.41;;;24.95;59.15
5380;BME280;2713;42.680;23.310;2023-06-14T10:55:14;94827.66;;;24.39;59.18
5380;BME280;2713;42.680;23.310;2023-06-14T10:57:44;94819.94;;;24.47;59.88
5380;BME280;2713;42.680;23.310;2023-06-14T11:00:15;94816.72;;;24.45;59.39
5380;BME280;2713;42.680;23.310;2023-06-14T11:02:58;94813.81;;;24.52;59.75
5380;BME280;2713;42.680;23.310;2023-06-14T11:05:42;94808.91;;;24.74;58.69
5380;BME280;2713;42.680;23.310;2023-06-14T11:08:27;94811.19;;;25.06;57.13
5380;BME280;2713;42.680;23.310;2023-06-14T11:11:01;94802.34;;;25.49;57.06
5380;BME280;2713;42.680;23.310;2023-06-14T11:13:32;94810.81;;;25.61;56.69
5380;BME280;2713;42.680;23.310;2023-06-14T11:16:00;94802.47;;;25.34;56.95
5380;BME280;2713;42.680;23.310;2023-06-14T11:18:28;94789.19;;;24.90;57.86
5380;BME280;2713;42.680;23.310;2023-06-14T11:20:55;94802.84;;;24.63;58.09
5380;BME280;2713;42.680;23.310;2023-06-14T11:23:22;94801.22;;;24.83;58.90
5380;BME280;2713;42.680;23.310;2023-06-14T11:25:52;94800.06;;;24.94;57.81
5380;BME280;2713;42.680;23.310;2023-06-14T11:28:19;94799.09;;;24.74;57.93
5380;BME280;2713;42.680;23.310;2023-06-14T11:30:47;94794.31;;;24.71;58.43
5380;BME280;2713;42.680;23.310;2023-06-14T11:33:18;94799.97;;;24.55;57.62
5380;BME280;2713;42.680;23.310;2023-06-14T11:35:45;94792.66;;;24.81;57.27
5380;BME280;2713;42.680;23.310;2023-06-14T11:38:12;94789.25;;;24.75;57.97
5380;BME280;2713;42.680;23.310;2023-06-14T11:40:39;94784.69;;;24.86;58.11
5380;BME280;2713;42.680;23.310;2023-06-14T11:43:06;94788.53;;;24.54;57.66
5380;BME280;2713;42.680;23.310;2023-06-14T11:45:33;94783.50;;;24.53;59.10
5380;BME280;2713;42.680;23.310;2023-06-14T11:48:00;94782.16;;;24.55;59.59
5380;BME280;2713;42.680;23.310;2023-06-14T11:50:29;94774.81;;;24.96;58.87
5380;BME280;2713;42.680;23.310;2023-06-14T11:52:56;94764.34;;;25.10;57.12
5380;BME280;2713;42.680;23.310;2023-06-14T11:55:25;94760.16;;;24.99;57.74
5380;BME280;2713;42.680;23.310;2023-06-14T11:57:54;94769.81;;;24.85;57.27
5380;BME280;2713;42.680;23.310;2023-06-14T12:00:24;94766.53;;;24.39;58.96
5380;BME280;2713;42.680;23.310;2023-06-14T12:02:53;94766.03;;;24.37;58.75
5380;BME280;2713;42.680;23.310;2023-06-14T12:05:21;94758.19;;;24.65;59.04
5380;BME280;2713;42.680;23.310;2023-06-14T12:07:50;94758.38;;;24.79;56.95
5380;BME280;2713;42.680;23.310;2023-06-14T12:10:19;94745.56;;;24.91;57.02
5380;BME280;2713;42.680;23.310;2023-06-14T12:12:46;94741.25;;;25.00;56.37
5380;BME280;2713;42.680;23.310;2023-06-14T12:15:12;94749.28;;;24.95;56.53
5380;BME280;2713;42.680;23.310;2023-06-14T12:17:39;94735.47;;;24.88;57.13
5380;BME280;2713;42.680;23.310;2023-06-14T12:20:10;94736.13;;;25.09;57.15
5380;BME280;2713;42.680;23.310;2023-06-14T12:22:39;94737.09;;;24.89;55.49
5380;BME280;2713;42.680;23.310;2023-06-14T12:25:26;94737.88;;;24.80;55.87
5380;BME280;2713;42.680;23.310;2023-06-14T12:27:54;94717.69;;;24.84;55.95
5380;BME280;2713;42.680;23.310;2023-06-14T12:30:20;94743.63;;;25.07;54.45
5380;BME280;2713;42.680;23.310;2023-06-14T12:32:47;94733.09;;;24.87;55.25
5380;BME280;2713;42.680;23.310;2023-06-14T12:35:17;94722.78;;;24.75;55.85
5380;BME280;2713;42.680;23.310;2023-06-14T12:37:45;94724.50;;;25.00;56.08
5380;BME280;2713;42.680;23.310;2023-06-14T12:40:12;94726.81;;;25.11;56.16
5380;BME280;2713;42.680;23.310;2023-06-14T12:42:40;94713.00;;;25.38;56.31
5380;BME280;2713;42.680;23.310;2023-06-14T12:45:08;94718.75;;;25.55;55.23
5380;BME280;2713;42.680;23.310;2023-06-14T12:47:36;94712.59;;;25.84;55.49
5380;BME280;2713;42.680;23.310;2023-06-14T12:50:03;94714.00;;;25.47;55.91
5380;BME280;2713;42.680;23.310;2023-06-14T12:52:30;94709.56;;;25.04;56.31
5380;BME280;2713;42.680;23.310;2023-06-14T12:54:56;94710.72;;;24.93;56.62
5380;BME280;2713;42.680;23.310;2023-06-14T12:57:23;94703.69;;;24.68;57.28
5380;BME280;2713;42.680;23.310;2023-06-14T12:59:52;94703.31;;;24.80;57.00
5380;BME280;2713;42.680;23.310;2023-06-14T13:02:19;94705.03;;;24.65;57.69
5380;BME280;2713;42.680;23.310;2023-06-14T13:04:47;94707.88;;;24.79;58.67
5380;BME280;2713;42.680;23.310;2023-06-14T13:07:14;94708.63;;;24.80;58.90
5380;BME280;2713;42.680;23.310;2023-06-14T13:09:41;94709.25;;;24.66;58.73
5380;BME280;2713;42.680;23.310;2023-06-14T13:12:09;94711.72;;;24.53;59.58
5380;BME280;2713;42.680;23.310;2023-06-14T13:14:37;94699.78;;;24.55;60.70
5380;BME280;2713;42.680;23.310;2023-06-14T13:17:07;94699.34;;;24.38;61.28
5380;BME280;2713;42.680;23.310;2023-06-14T13:19:35;94710.50;;;24.35;62.27